Latest Weather Observations for Toowoomba

IDQ60801

Issued at 10:05 am EST Sunday 26 October 2014 (issued every 30 minutes, with the page automatically refreshed every 10 minutes)

About weather observations | Map of weather stations | Latest weather observations for QLD | Other Formats
Station Details ID: 041529 Name: TOOWOOMBA AIRPORT Lat: -27.54 Lon: 151.91 Height: 640.9 m
Data from the previous 72 hours. | See also: Recent months at Toowoomba
Date/Time
EST
Temp
°C
App
Temp
°C
Dew
Point
Rel
Hum
%
Delta-T
°C
Wind Press
QNH
hPa
Press
MSL
hPa
Rain
since 9 am
mm
Dir
 
Spd
km/h
Gust
km/h
Spd
kts
Gust
kts
26/10:00am 28.3 25.6 11.8 36 9.8 NW 17 22 9 12 1019.3 - 0.0
26/09:30am 27.6 25.1 12.4 39 9.1 WNW 17 20 9 11 1019.6 - 0.0
26/09:00am 26.4 23.7 12.8 43 8.1 WNW 19 26 10 14 1019.7 1017.4 0.0
26/08:30am 25.1 21.9 12.0 44 7.7 NW 20 26 11 14 1019.8 - 0.0
26/08:00am 25.3 22.7 13.2 47 7.3 NW 19 28 10 15 1019.8 - 0.0
26/07:30am 23.3 22.4 13.8 55 5.7 NNW 11 15 6 8 1019.7 - 0.0
26/07:00am 21.3 19.9 13.5 61 4.6 NNW 13 17 7 9 1019.5 - 0.0
26/06:30am 20.1 18.5 12.8 63 4.3 N 13 17 7 9 1019.3 - 0.0
26/06:00am 19.8 18.1 12.6 63 4.2 N 13 17 7 9 1019.2 1016.9 0.0
26/05:30am 19.5 18.1 12.3 63 4.1 N 11 13 6 7 1019.0 - 0.0
26/05:00am 19.7 18.3 12.2 62 4.3 N 11 11 6 6 1018.7 - 0.0
26/04:30am 18.7 18.0 13.1 70 3.3 NNE 9 11 5 6 1018.5 - 0.0
26/04:00am 17.2 17.0 13.1 77 2.4 NE 6 9 3 5 1018.7 - 0.0
26/03:30am 17.6 16.8 13.9 79 2.2 E 11 13 6 7 1018.7 - 0.0
26/03:00am 16.9 15.7 14.0 83 1.7 E 13 17 7 9 1018.8 1016.5 0.0
26/02:30am 17.4 16.4 14.7 84 1.6 ENE 13 15 7 8 1018.8 - 0.0
26/02:00am 17.2 16.3 14.8 86 1.4 E 13 15 7 8 1018.9 - 0.0
26/01:30am 17.4 15.9 15.2 87 1.3 E 17 17 9 9 1019.0 - 0.0
26/01:00am 17.6 16.1 15.4 87 1.3 ENE 17 19 9 10 1019.5 - 0.0
26/12:30am 17.5 15.6 15.3 87 1.3 E 19 22 10 12 1019.8 - 0.0
26/12:00am 17.9 16.0 15.3 85 1.6 E 19 22 10 12 1019.9 1017.6 0.0
 
Date/Time
EST
Temp
°C
App
Temp
°C
Dew
Point
Rel
Hum
%
Delta-T
°C
Wind Press
QNH
hPa
Press
MSL
hPa
Rain
since 9 am
mm
Dir
 
Spd
km/h
Gust
km/h
Spd
kts
Gust
kts
25/11:30pm 18.3 15.8 15.2 82 1.9 E 22 28 12 15 1020.1 - 0.0
25/11:00pm 18.9 16.3 15.0 78 2.3 E 22 28 12 15 1020.1 - 0.0
25/10:30pm 20.4 19.1 14.7 70 3.4 E 15 19 8 10 1020.0 - 0.0
25/10:00pm 21.5 19.0 14.2 63 4.4 E 20 24 11 13 1019.6 - 0.0
25/09:30pm 22.7 20.2 13.5 56 5.5 E 19 20 10 11 1019.6 - 0.0
25/09:00pm 22.9 20.5 11.3 48 6.7 E 15 20 8 11 1019.7 1017.4 0.0
25/08:30pm 24.1 21.8 10.4 42 7.8 E 13 17 7 9 1019.7 - 0.0
25/08:00pm 25.2 22.8 8.7 35 9.2 SE 11 17 6 9 1019.4 - 0.0
25/07:30pm 27.1 23.9 7.0 28 11.0 SE 13 17 7 9 1019.0 - 0.0
25/07:00pm 28.0 24.9 3.7 21 12.6 S 9 17 5 9 1018.8 - 0.0
25/06:30pm 27.9 24.8 5.5 24 12.0 SW 11 13 6 7 1018.4 - 0.0
25/06:00pm 29.5 25.9 4.9 21 13.1 SW 13 15 7 8 1018.0 1015.7 0.0
25/05:30pm 30.8 25.8 4.5 19 14.0 WSW 20 28 11 15 1017.7 - 0.0
25/05:00pm 31.4 27.7 6.5 21 13.8 W 15 19 8 10 1017.5 - 0.0
25/04:30pm 31.3 27.2 6.4 21 13.7 W 17 24 9 13 1017.4 - 0.0
25/04:00pm 31.7 28.8 8.0 23 13.4 W 13 24 7 13 1017.6 - 0.0
25/03:30pm 30.5 26.9 8.3 25 12.6 SW 17 20 9 11 1017.8 - 0.0
25/03:00pm 31.3 27.8 8.9 25 12.9 WSW 17 26 9 14 1018.1 1015.8 0.0
25/02:30pm 30.4 27.1 8.2 25 12.6 W 15 32 8 17 1018.4 - 0.0
25/02:00pm 30.1 26.2 9.6 28 11.8 WNW 20 30 11 16 1018.9 - 0.0
25/01:30pm 30.4 25.8 9.8 28 12.0 WSW 24 28 13 15 1019.4 - 0.0
25/01:00pm 30.0 24.9 10.5 30 11.4 WSW 28 41 15 22 1019.8 - 0.0
25/12:30pm 29.0 25.8 11.1 33 10.5 W 19 26 10 14 1020.4 - 0.0
25/12:00pm 28.7 26.4 11.7 35 10.1 WNW 15 26 8 14 1021.1 1018.8 0.0
25/11:30am 26.4 24.1 11.7 40 8.6 W 15 24 8 13 1021.5 - 0.0
25/11:00am 25.6 23.6 11.4 41 8.3 NW 13 19 7 10 1022.1 - 0.0
25/10:30am 24.5 22.7 12.1 46 7.3 NW 13 22 7 12 1022.4 - 0.0
25/10:00am 23.2 21.2 11.6 48 6.7 NW 13 20 7 11 1022.9 - 0.0
25/09:30am 21.6 20.2 12.2 55 5.5 NNW 11 19 6 10 1023.2 - 0.0
25/09:00am 20.8 19.9 12.5 59 4.8 WSW 9 15 5 8 1023.4 1021.2 0.0
25/08:30am 19.4 18.4 12.4 64 4.0 WNW 9 17 5 9 1023.5 - 0.0
25/08:00am 18.4 17.4 12.4 68 3.4 W 9 13 5 7 1023.7 - 0.0
25/07:30am 17.0 15.1 11.7 71 3.0 NNW 13 17 7 9 1023.4 - 0.0
25/07:00am 16.1 13.7 11.5 74 2.6 NNW 15 19 8 10 1023.2 - 0.0
25/06:30am 15.2 12.9 11.8 80 1.9 N 15 19 8 10 1023.0 - 0.0
25/06:00am 14.3 13.4 12.5 89 1.0 ENE 9 9 5 5 1022.8 1020.6 0.0
25/05:30am 13.2 11.4 12.1 93 0.6 ENE 13 19 7 10 1022.4 - 0.0
25/05:00am 13.0 11.1 11.9 93 0.6 E 13 17 7 9 1021.8 - 0.0
25/04:30am 13.2 11.3 11.9 92 0.7 E 13 17 7 9 1021.6 - 0.0
25/04:00am 13.4 10.8 12.1 92 0.7 E 17 19 9 10 1021.1 - 0.0
25/03:30am 13.6 11.1 12.2 91 0.8 E 17 22 9 12 1020.9 - 0.0
25/03:00am 13.7 10.8 12.4 92 0.7 E 19 20 10 11 1020.9 1018.6 0.0
25/02:30am 13.9 10.9 12.5 91 0.8 E 20 24 11 13 1020.7 - 0.0
25/02:00am 14.0 11.5 12.4 90 0.9 E 17 20 9 11 1020.9 - 0.0
25/01:30am 14.2 11.2 12.4 89 1.0 E 20 24 11 13 1021.2 - 0.0
25/01:00am 14.4 11.0 12.6 89 1.0 E 22 26 12 14 1021.5 - 0.0
25/12:30am 14.7 11.3 12.6 87 1.2 E 22 28 12 15 1021.8 - 0.0
25/12:00am 14.9 11.2 12.6 86 1.3 E 24 32 13 17 1022.2 1019.9 0.0
 
Date/Time
EST
Temp
°C
App
Temp
°C
Dew
Point
Rel
Hum
%
Delta-T
°C
Wind Press
QNH
hPa
Press
MSL
hPa
Rain
since 9 am
mm
Dir
 
Spd
km/h
Gust
km/h
Spd
kts
Gust
kts
24/11:30pm 15.1 11.7 12.6 85 1.4 E 22 28 12 15 1022.6 - 0.0
24/11:00pm 15.4 11.3 12.7 84 1.5 E 26 32 14 17 1023.2 - 0.0
24/10:30pm 15.7 11.6 12.8 83 1.7 E 26 33 14 18 1023.8 - 0.0
24/10:00pm 16.2 12.2 12.9 81 1.9 E 26 33 14 18 1023.5 - 0.0
24/09:30pm 16.6 12.6 12.9 79 2.1 E 26 35 14 19 1023.7 - 0.0
24/09:00pm 17.2 13.2 13.1 77 2.4 E 26 33 14 18 1023.9 1021.6 0.0
24/08:30pm 18.3 13.9 13.0 71 3.1 E 28 35 15 19 1023.5 - 0.0
24/08:00pm 19.5 16.7 13.2 67 3.7 NE 20 28 11 15 1022.7 - 0.0
24/07:30pm 20.2 15.5 13.2 64 4.1 E 30 39 16 21 1023.0 - 0.0
24/07:00pm 21.8 17.9 13.2 58 5.1 E 26 35 14 19 1022.7 - 0.0
24/06:30pm 22.8 19.2 13.0 54 5.8 E 24 32 13 17 1022.0 - 0.0
24/06:00pm 23.9 19.8 11.6 46 7.1 E 24 32 13 17 1021.6 1019.4 0.0
24/05:30pm 25.2 20.6 9.5 37 8.8 E 24 32 13 17 1021.1 - 0.0
24/05:00pm 26.2 22.2 9.1 34 9.6 E 20 26 11 14 1020.8 - 0.0
24/04:30pm 26.7 22.6 8.6 32 10.1 E 20 32 11 17 1020.6 - 0.0
24/04:00pm 26.8 22.7 8.7 32 10.1 E 20 30 11 16 1020.7 - 0.0
24/03:30pm 27.6 23.8 9.0 31 10.5 ESE 19 26 10 14 1020.7 - 0.0
24/03:00pm 27.7 24.0 8.1 29 10.9 E 17 22 9 12 1020.9 1018.6 0.0
24/02:30pm 27.5 23.8 9.3 32 10.3 E 19 28 10 15 1021.1 - 0.0
24/02:00pm 26.8 24.3 9.6 34 9.8 E 13 20 7 11 1021.5 - 0.0
24/01:30pm 26.9 23.1 9.7 34 9.8 ESE 20 32 11 17 1021.8 - 0.0
24/01:00pm 26.8 23.5 10.9 37 9.2 ESE 19 22 10 12 1022.3 - 0.0
24/12:30pm 26.6 23.6 10.7 37 9.2 ENE 17 22 9 12 1022.8 - 0.0
24/12:00pm 25.3 22.9 10.0 38 8.7 E 13 20 7 11 1023.2 1021.0 0.0
24/11:30am 25.5 23.8 11.3 41 8.3 ENE 11 19 6 10 1023.7 - 0.0
24/11:00am 24.2 22.8 12.2 47 7.0 SE 11 20 6 11 1024.1 - 0.0
24/10:30am 23.2 21.9 12.5 51 6.3 ENE 11 15 6 8 1024.6 - 0.0
24/10:00am 21.9 20.8 11.9 53 5.8 ENE 9 15 5 8 1024.8 - 0.0
24/09:30am 21.2 20.0 12.9 59 4.9 E 11 17 6 9 1025.0 - 0.0
24/09:00am 20.0 18.3 12.5 62 4.3 E 13 19 7 10 1025.3 1023.0 0.0
24/08:30am 19.0 17.3 12.5 66 3.7 NE 13 19 7 10 1025.3 - 0.0
24/08:00am 18.0 16.2 12.0 68 3.4 NE 13 17 7 9 1025.3 - 0.0
24/07:30am 16.7 13.9 12.5 76 2.4 E 19 24 10 13 1024.7 - 0.0
24/07:00am 15.8 12.4 12.4 80 1.9 E 22 33 12 18 1024.4 - 0.0
24/06:30am 14.5 10.7 12.4 87 1.2 E 24 28 13 15 1024.0 - 0.0
24/06:00am 13.8 10.0 12.4 91 0.8 E 24 30 13 16 1023.9 1021.6 0.0
24/05:44am 13.3 9.4 12.0 92 0.7 E 24 28 13 15 1023.5 - 0.0
24/05:30am 13.1 9.3 12.3 95 0.4 E 24 30 13 16 1023.1 - 0.0
24/05:00am 13.2 9.4 12.4 95 0.4 E 24 28 13 15 1023.1 - 0.0
24/04:55am 13.1 9.2 12.2 94 0.5 E 24 28 13 15 1023.0 - 0.0
24/04:30am 13.2 9.7 12.1 93 0.6 E 22 28 12 15 1022.8 - 0.0
24/04:00am 13.2 10.0 11.9 92 0.7 E 20 24 11 13 1022.4 - 0.0
24/03:30am 13.3 10.7 12.0 92 0.7 E 17 20 9 11 1022.4 - 0.0
24/03:00am 13.4 11.2 12.0 91 0.8 E 15 19 8 10 1022.3 1020.0 0.0
24/02:30am 13.6 10.5 12.2 91 0.8 E 20 22 11 12 1022.1 - 0.0
24/02:00am 13.9 10.8 12.3 90 0.9 E 20 24 11 13 1022.2 - 0.0
24/01:30am 14.1 10.6 12.3 89 1.0 E 22 30 12 16 1022.3 - 0.0
24/01:00am 14.6 11.5 12.3 86 1.3 E 20 24 11 13 1022.6 - 0.0
24/12:30am 15.0 11.2 12.5 85 1.4 E 24 30 13 16 1022.8 - 0.0
24/12:00am 15.6 11.1 12.7 83 1.6 E 28 35 15 19 1022.9 1020.7 0.0
 
Date/Time
EST
Temp
°C
App
Temp
°C
Dew
Point
Rel
Hum
%
Delta-T
°C
Wind Press
QNH
hPa
Press
MSL
hPa
Rain
since 9 am
mm
Dir
 
Spd
km/h
Gust
km/h
Spd
kts
Gust
kts
23/11:30pm 16.5 15.2 12.5 77 2.3 NNE 11 28 6 15 1022.9 - 0.0
23/11:00pm 18.0 17.2 12.9 72 2.9 ENE 9 11 5 6 1022.8 - 0.0
23/10:30pm 17.0 15.1 12.9 77 2.4 E 15 19 8 10 1023.3 - 0.0
23/10:00pm 17.6 14.6 12.5 72 2.9 E 20 24 11 13 1023.7 - 0.0
23/09:30pm 18.3 14.4 12.1 67 3.5 E 24 32 13 17 1023.7 - 0.0
23/09:00pm 18.6 14.3 11.9 65 3.8 E 26 32 14 17 1023.2 1021.0 0.0
23/08:30pm 18.8 14.0 11.6 63 4.1 E 28 35 15 19 1022.9 - 0.0
23/08:00pm 19.7 15.7 11.7 60 4.6 E 24 28 13 15 1022.6 - 0.0
23/07:30pm 19.7 14.9 11.7 60 4.6 E 28 35 15 19 1022.3 - 0.0
23/07:00pm 20.5 17.4 12.2 59 4.8 E 20 28 11 15 1022.1 - 0.0
23/06:30pm 21.5 19.1 11.5 53 5.7 NE 15 20 8 11 1021.8 - 0.0
23/06:00pm 23.7 20.2 8.9 39 8.2 SE 17 19 9 10 1021.2 1018.9 0.0
23/05:30pm 24.1 19.7 8.9 38 8.4 E 22 30 12 16 1020.2 - 0.0
23/05:00pm 25.4 20.9 8.4 34 9.4 E 22 28 12 15 1019.7 - 0.0
23/04:30pm 27.6 25.2 6.9 27 11.3 SW 9 17 5 9 1019.5 - 0.0
23/04:00pm 26.9 24.7 6.3 27 11.1 ENE 7 13 4 7 1019.4 - 0.0
23/03:30pm 27.1 24.5 6.0 26 11.3 S 9 19 5 10 1019.2 - 0.0
23/03:00pm 27.0 22.4 6.4 27 11.1 SSE 20 28 11 15 1019.4 1017.1 0.0
23/02:30pm 27.2 22.8 6.6 27 11.2 S 19 28 10 15 1019.7 - 0.0
23/02:00pm 25.9 23.0 6.5 29 10.4 SSE 11 20 6 11 1020.2 - 0.0
23/01:30pm 26.2 24.2 8.7 33 9.8 SSW 9 17 5 9 1020.8 - 0.0
23/01:00pm 25.0 22.6 8.5 35 9.1 SSE 11 20 6 11 1021.3 - 0.0
23/12:30pm 24.6 22.7 9.0 37 8.7 SSW 9 19 5 10 1021.8 - 0.0
23/12:00pm 24.1 21.6 9.7 40 8.1 SW 13 19 7 10 1022.5 1020.2 0.0
23/11:30am 22.8 20.0 8.5 40 7.8 SSW 13 20 7 11 1023.1 - 0.0
23/11:00am 22.2 19.5 9.0 43 7.3 SSW 13 20 7 11 1023.5 - 0.0
23/10:30am 21.4 19.2 9.3 46 6.7 W 11 17 6 9 1023.9 - 0.0

Other Formats:

Comma delimited format used in spreadsheet applications
http://www.bom.gov.au/fwo/IDQ60801/IDQ60801.95551.axf

JavaScript Object Notation format (JSON) in row-major order
http://www.bom.gov.au/fwo/IDQ60801/IDQ60801.95551.json